sensor_id;sensor_type;location;lat;lon;timestamp;P1;durP1;ratioP1;P2;durP2;ratioP2
62353;SDS011;48391;49.184;2.418;2023-04-01T00:01:52;3.22;;;1.25;;
62353;SDS011;48391;49.184;2.418;2023-04-01T00:04:18;5.80;;;1.35;;
62353;SDS011;48391;49.184;2.418;2023-04-01T00:06:45;4.22;;;1.00;;
62353;SDS011;48391;49.184;2.418;2023-04-01T00:09:12;5.97;;;1.58;;
62353;SDS011;48391;49.184;2.418;2023-04-01T00:11:38;6.57;;;1.50;;
62353;SDS011;48391;49.184;2.418;2023-04-01T00:14:06;4.07;;;1.42;;
62353;SDS011;48391;49.184;2.418;2023-04-01T00:16:33;5.82;;;1.20;;
62353;SDS011;48391;49.184;2.418;2023-04-01T00:18:59;6.38;;;2.20;;
62353;SDS011;48391;49.184;2.418;2023-04-01T00:21:25;6.78;;;1.58;;
62353;SDS011;48391;49.184;2.418;2023-04-01T00:23:51;7.05;;;1.98;;
62353;SDS011;48391;49.184;2.418;2023-04-01T00:26:17;7.35;;;1.50;;
62353;SDS011;48391;49.184;2.418;2023-04-01T00:28:45;10.27;;;2.28;;
62353;SDS011;48391;49.184;2.418;2023-04-01T00:31:12;4.38;;;1.50;;
62353;SDS011;48391;49.184;2.418;2023-04-01T00:33:38;8.35;;;1.25;;
62353;SDS011;48391;49.184;2.418;2023-04-01T00:36:12;8.55;;;1.38;;
62353;SDS011;48391;49.184;2.418;2023-04-01T00:38:39;6.97;;;1.15;;
62353;SDS011;48391;49.184;2.418;2023-04-01T00:41:06;4.50;;;1.08;;
62353;SDS011;48391;49.184;2.418;2023-04-01T00:43:32;6.15;;;0.93;;
62353;SDS011;48391;49.184;2.418;2023-04-01T00:45:59;8.90;;;1.38;;
62353;SDS011;48391;49.184;2.418;2023-04-01T00:48:32;8.10;;;2.03;;
62353;SDS011;48391;49.184;2.418;2023-04-01T00:53:28;4.25;;;1.67;;
62353;SDS011;48391;49.184;2.418;2023-04-01T00:55:57;4.70;;;1.05;;
62353;SDS011;48391;49.184;2.418;2023-04-01T00:58:25;6.68;;;1.45;;
62353;SDS011;48391;49.184;2.418;2023-04-01T01:00:53;8.30;;;2.08;;
62353;SDS011;48391;49.184;2.418;2023-04-01T01:03:19;3.92;;;0.70;;
62353;SDS011;48391;49.184;2.418;2023-04-01T01:05:52;5.47;;;1.17;;
62353;SDS011;48391;49.184;2.418;2023-04-01T01:11:13;5.30;;;1.50;;
62353;SDS011;48391;49.184;2.418;2023-04-01T01:13:44;5.25;;;1.25;;
62353;SDS011;48391;49.184;2.418;2023-04-01T01:16:18;3.95;;;0.73;;
62353;SDS011;48391;49.184;2.418;2023-04-01T01:36:53;6.05;;;1.40;;
62353;SDS011;48391;49.184;2.418;2023-04-01T01:39:21;5.90;;;1.08;;
62353;SDS011;48391;49.184;2.418;2023-04-01T01:41:52;4.85;;;1.02;;
62353;SDS011;48391;49.184;2.418;2023-04-01T01:44:19;4.10;;;0.82;;
62353;SDS011;48391;49.184;2.418;2023-04-01T01:46:46;5.07;;;1.30;;
62353;SDS011;48391;49.184;2.418;2023-04-01T01:49:13;7.10;;;1.42;;
62353;SDS011;48391;49.184;2.418;2023-04-01T01:51:40;5.72;;;1.23;;
62353;SDS011;48391;49.184;2.418;2023-04-01T01:54:11;5.13;;;1.40;;
62353;SDS011;48391;49.184;2.418;2023-04-01T01:56:37;3.33;;;0.90;;
62353;SDS011;48391;49.184;2.418;2023-04-01T01:59:05;4.50;;;1.25;;
62353;SDS011;48391;49.184;2.418;2023-04-01T02:01:34;2.67;;;1.13;;
62353;SDS011;48391;49.184;2.418;2023-04-01T02:04:01;8.07;;;0.80;;
62353;SDS011;48391;49.184;2.418;2023-04-01T02:06:28;5.78;;;1.30;;
62353;SDS011;48391;49.184;2.418;2023-04-01T02:08:57;6.63;;;1.40;;
62353;SDS011;48391;49.184;2.418;2023-04-01T02:11:29;6.00;;;1.60;;
62353;SDS011;48391;49.184;2.418;2023-04-01T02:13:57;2.78;;;0.98;;
62353;SDS011;48391;49.184;2.418;2023-04-01T02:16:31;1.83;;;0.65;;
62353;SDS011;48391;49.184;2.418;2023-04-01T02:18:59;5.15;;;0.82;;
62353;SDS011;48391;49.184;2.418;2023-04-01T02:21:27;6.15;;;1.58;;
62353;SDS011;48391;49.184;2.418;2023-04-01T02:23:55;2.70;;;0.95;;
62353;SDS011;48391;49.184;2.418;2023-04-01T02:26:21;6.15;;;1.80;;
62353;SDS011;48391;49.184;2.418;2023-04-01T02:28:49;9.10;;;1.63;;
62353;SDS011;48391;49.184;2.418;2023-04-01T02:31:16;7.28;;;0.65;;
62353;SDS011;48391;49.184;2.418;2023-04-01T02:33:42;4.88;;;1.42;;
62353;SDS011;48391;49.184;2.418;2023-04-01T02:36:12;3.95;;;0.75;;
62353;SDS011;48391;49.184;2.418;2023-04-01T02:38:39;2.65;;;0.63;;
62353;SDS011;48391;49.184;2.418;2023-04-01T02:41:06;3.35;;;0.82;;
62353;SDS011;48391;49.184;2.418;2023-04-01T02:43:32;8.50;;;1.40;;
62353;SDS011;48391;49.184;2.418;2023-04-01T02:45:58;4.55;;;0.77;;
62353;SDS011;48391;49.184;2.418;2023-04-01T02:48:24;5.75;;;1.48;;
62353;SDS011;48391;49.184;2.418;2023-04-01T02:50:50;4.78;;;1.55;;
62353;SDS011;48391;49.184;2.418;2023-04-01T02:53:16;5.68;;;1.10;;
62353;SDS011;48391;49.184;2.418;2023-04-01T02:55:43;4.28;;;1.58;;
62353;SDS011;48391;49.184;2.418;2023-04-01T02:58:10;2.65;;;1.10;;
62353;SDS011;48391;49.184;2.418;2023-04-01T03:00:36;5.05;;;1.23;;
62353;SDS011;48391;49.184;2.418;2023-04-01T03:03:02;5.28;;;0.93;;
62353;SDS011;48391;49.184;2.418;2023-04-01T03:05:28;3.70;;;1.13;;
62353;SDS011;48391;49.184;2.418;2023-04-01T03:07:55;4.50;;;1.00;;
62353;SDS011;48391;49.184;2.418;2023-04-01T03:10:21;2.95;;;0.85;;
62353;SDS011;48391;49.184;2.418;2023-04-01T03:12:47;2.10;;;0.88;;
62353;SDS011;48391;49.184;2.418;2023-04-01T03:15:13;3.10;;;1.13;;
62353;SDS011;48391;49.184;2.418;2023-04-01T03:17:40;2.40;;;0.70;;
62353;SDS011;48391;49.184;2.418;2023-04-01T03:20:06;1.95;;;0.85;;
62353;SDS011;48391;49.184;2.418;2023-04-01T03:22:33;3.47;;;1.02;;
62353;SDS011;48391;49.184;2.418;2023-04-01T03:25:00;6.05;;;1.38;;
62353;SDS011;48391;49.184;2.418;2023-04-01T03:27:26;5.30;;;0.80;;
62353;SDS011;48391;49.184;2.418;2023-04-01T03:29:52;5.65;;;1.52;;
62353;SDS011;48391;49.184;2.418;2023-04-01T03:32:18;1.90;;;0.82;;
62353;SDS011;48391;49.184;2.418;2023-04-01T03:34:44;3.92;;;1.00;;
62353;SDS011;48391;49.184;2.418;2023-04-01T03:37:10;3.67;;;1.05;;
62353;SDS011;48391;49.184;2.418;2023-04-01T03:39:36;2.65;;;1.15;;
62353;SDS011;48391;49.184;2.418;2023-04-01T03:42:03;3.65;;;0.65;;
62353;SDS011;48391;49.184;2.418;2023-04-01T03:44:32;6.28;;;1.10;;
62353;SDS011;48391;49.184;2.418;2023-04-01T03:46:58;4.93;;;0.65;;
62353;SDS011;48391;49.184;2.418;2023-04-01T03:49:25;5.40;;;0.98;;
62353;SDS011;48391;49.184;2.418;2023-04-01T03:51:51;3.58;;;0.55;;
62353;SDS011;48391;49.184;2.418;2023-04-01T03:54:17;2.85;;;0.60;;
62353;SDS011;48391;49.184;2.418;2023-04-01T03:56:45;3.88;;;0.88;;
62353;SDS011;48391;49.184;2.418;2023-04-01T03:59:11;9.73;;;1.05;;
62353;SDS011;48391;49.184;2.418;2023-04-01T04:01:37;1.85;;;0.70;;
62353;SDS011;48391;49.184;2.418;2023-04-01T04:04:03;6.65;;;0.60;;
62353;SDS011;48391;49.184;2.418;2023-04-01T04:06:30;2.47;;;0.32;;
62353;SDS011;48391;49.184;2.418;2023-04-01T04:08:56;3.45;;;0.52;;
62353;SDS011;48391;49.184;2.418;2023-04-01T04:11:23;2.30;;;0.65;;
62353;SDS011;48391;49.184;2.418;2023-04-01T04:13:49;3.58;;;0.50;;
62353;SDS011;48391;49.184;2.418;2023-04-01T04:16:15;3.70;;;0.50;;
62353;SDS011;48391;49.184;2.418;2023-04-01T04:18:42;6.38;;;0.70;;
62353;SDS011;48391;49.184;2.418;2023-04-01T04:21:11;3.45;;;0.40;;
62353;SDS011;48391;49.184;2.418;2023-04-01T04:23:37;3.75;;;0.75;;
62353;SDS011;48391;49.184;2.418;2023-04-01T04:26:04;2.83;;;0.98;;
62353;SDS011;48391;49.184;2.418;2023-04-01T04:28:30;3.50;;;0.90;;
62353;SDS011;48391;49.184;2.418;2023-04-01T04:30:56;1.42;;;0.80;;
62353;SDS011;48391;49.184;2.418;2023-04-01T04:33:23;4.53;;;1.23;;
62353;SDS011;48391;49.184;2.418;2023-04-01T04:35:49;1.77;;;0.70;;
62353;SDS011;48391;49.184;2.418;2023-04-01T04:38:16;6.70;;;1.77;;
62353;SDS011;48391;49.184;2.418;2023-04-01T04:40:43;4.40;;;1.10;;
62353;SDS011;48391;49.184;2.418;2023-04-01T04:43:12;4.75;;;1.27;;
62353;SDS011;48391;49.184;2.418;2023-04-01T04:45:39;3.73;;;0.63;;
62353;SDS011;48391;49.184;2.418;2023-04-01T04:48:06;3.15;;;0.75;;
62353;SDS011;48391;49.184;2.418;2023-04-01T04:50:33;4.90;;;1.05;;
62353;SDS011;48391;49.184;2.418;2023-04-01T04:52:59;7.43;;;1.00;;
62353;SDS011;48391;49.184;2.418;2023-04-01T04:55:25;3.88;;;1.02;;
62353;SDS011;48391;49.184;2.418;2023-04-01T04:57:51;4.78;;;0.98;;
62353;SDS011;48391;49.184;2.418;2023-04-01T05:00:17;3.53;;;1.42;;
62353;SDS011;48391;49.184;2.418;2023-04-01T05:02:43;4.22;;;1.75;;
62353;SDS011;48391;49.184;2.418;2023-04-01T05:05:09;6.10;;;1.60;;
62353;SDS011;48391;49.184;2.418;2023-04-01T05:07:35;6.45;;;1.27;;
62353;SDS011;48391;49.184;2.418;2023-04-01T05:10:02;4.50;;;1.23;;
62353;SDS011;48391;49.184;2.418;2023-04-01T05:12:28;7.82;;;1.65;;
62353;SDS011;48391;49.184;2.418;2023-04-01T05:14:54;7.70;;;1.63;;
62353;SDS011;48391;49.184;2.418;2023-04-01T05:17:20;9.68;;;1.73;;
62353;SDS011;48391;49.184;2.418;2023-04-01T05:19:46;6.50;;;1.98;;
62353;SDS011;48391;49.184;2.418;2023-04-01T05:22:12;3.80;;;1.25;;
62353;SDS011;48391;49.184;2.418;2023-04-01T05:24:38;5.82;;;1.45;;
62353;SDS011;48391;49.184;2.418;2023-04-01T05:27:04;6.35;;;1.35;;
62353;SDS011;48391;49.184;2.418;2023-04-01T05:29:30;3.42;;;0.60;;
62353;SDS011;48391;49.184;2.418;2023-04-01T05:31:56;5.05;;;1.42;;
62353;SDS011;48391;49.184;2.418;2023-04-01T05:34:22;3.60;;;0.98;;
62353;SDS011;48391;49.184;2.418;2023-04-01T05:36:48;3.45;;;1.17;;
62353;SDS011;48391;49.184;2.418;2023-04-01T05:39:15;1.77;;;0.90;;
62353;SDS011;48391;49.184;2.418;2023-04-01T05:41:41;5.40;;;1.95;;
62353;SDS011;48391;49.184;2.418;2023-04-01T05:44:07;4.47;;;2.13;;
62353;SDS011;48391;49.184;2.418;2023-04-01T05:46:33;8.00;;;0.95;;
62353;SDS011;48391;49.184;2.418;2023-04-01T05:48:59;9.82;;;1.02;;
62353;SDS011;48391;49.184;2.418;2023-04-01T05:51:25;3.90;;;1.13;;
62353;SDS011;48391;49.184;2.418;2023-04-01T05:53:51;3.13;;;0.80;;
62353;SDS011;48391;49.184;2.418;2023-04-01T05:56:17;5.07;;;0.88;;
62353;SDS011;48391;49.184;2.418;2023-04-01T05:58:43;9.20;;;1.60;;
62353;SDS011;48391;49.184;2.418;2023-04-01T06:01:12;4.13;;;1.27;;
62353;SDS011;48391;49.184;2.418;2023-04-01T06:03:38;2.47;;;0.95;;
62353;SDS011;48391;49.184;2.418;2023-04-01T06:06:04;3.22;;;0.90;;
62353;SDS011;48391;49.184;2.418;2023-04-01T06:08:33;7.15;;;1.52;;
62353;SDS011;48391;49.184;2.418;2023-04-01T06:18:48;4.07;;;1.13;;
62353;SDS011;48391;49.184;2.418;2023-04-01T06:22:01;6.82;;;1.13;;
62353;SDS011;48391;49.184;2.418;2023-04-01T06:34:48;7.20;;;1.23;;
62353;SDS011;48391;49.184;2.418;2023-04-01T06:42:38;7.57;;;1.83;;
62353;SDS011;48391;49.184;2.418;2023-04-01T06:52:50;4.63;;;1.08;;
62353;SDS011;48391;49.184;2.418;2023-04-01T06:57:58;2.20;;;0.85;;
62353;SDS011;48391;49.184;2.418;2023-04-01T07:02:59;3.67;;;1.70;;
62353;SDS011;48391;49.184;2.418;2023-04-01T07:05:28;4.88;;;1.33;;
62353;SDS011;48391;49.184;2.418;2023-04-01T07:07:57;4.68;;;1.00;;
62353;SDS011;48391;49.184;2.418;2023-04-01T07:10:28;5.95;;;1.85;;
62353;SDS011;48391;49.184;2.418;2023-04-01T07:12:56;4.22;;;1.52;;
62353;SDS011;48391;49.184;2.418;2023-04-01T07:15:25;5.88;;;1.98;;
62353;SDS011;48391;49.184;2.418;2023-04-01T07:17:55;6.68;;;1.75;;
62353;SDS011;48391;49.184;2.418;2023-04-01T07:20:40;3.95;;;1.67;;
62353;SDS011;48391;49.184;2.418;2023-04-01T07:23:08;3.92;;;1.00;;
62353;SDS011;48391;49.184;2.418;2023-04-01T07:25:37;9.60;;;1.05;;
62353;SDS011;48391;49.184;2.418;2023-04-01T07:28:05;5.55;;;1.15;;
62353;SDS011;48391;49.184;2.418;2023-04-01T07:30:46;3.92;;;0.70;;
62353;SDS011;48391;49.184;2.418;2023-04-01T07:33:16;4.05;;;1.10;;
62353;SDS011;48391;49.184;2.418;2023-04-01T07:35:46;5.30;;;1.33;;
62353;SDS011;48391;49.184;2.418;2023-04-01T07:51:10;6.28;;;0.90;;
62353;SDS011;48391;49.184;2.418;2023-04-01T07:53:43;3.55;;;1.08;;
62353;SDS011;48391;49.184;2.418;2023-04-01T07:56:15;3.22;;;1.08;;
62353;SDS011;48391;49.184;2.418;2023-04-01T07:58:48;2.83;;;0.70;;
62353;SDS011;48391;49.184;2.418;2023-04-01T08:01:27;6.40;;;1.10;;
62353;SDS011;48391;49.184;2.418;2023-04-01T08:07:10;4.63;;;0.90;;
62353;SDS011;48391;49.184;2.418;2023-04-01T08:11:40;4.40;;;0.55;;
62353;SDS011;48391;49.184;2.418;2023-04-01T08:14:21;4.30;;;0.45;;
62353;SDS011;48391;49.184;2.418;2023-04-01T08:16:57;6.32;;;1.10;;
62353;SDS011;48391;49.184;2.418;2023-04-01T08:23:00;4.13;;;0.60;;
62353;SDS011;48391;49.184;2.418;2023-04-01T08:25:01;4.75;;;1.25;;
62353;SDS011;48391;49.184;2.418;2023-04-01T08:27:37;1.25;;;0.50;;
62353;SDS011;48391;49.184;2.418;2023-04-01T08:32:35;5.55;;;0.88;;
62353;SDS011;48391;49.184;2.418;2023-04-01T08:35:18;3.10;;;0.88;;
62353;SDS011;48391;49.184;2.418;2023-04-01T08:37:45;2.60;;;0.32;;
62353;SDS011;48391;49.184;2.418;2023-04-01T08:43:15;1.30;;;0.60;;
62353;SDS011;48391;49.184;2.418;2023-04-01T09:03:56;4.43;;;0.70;;
62353;SDS011;48391;49.184;2.418;2023-04-01T09:06:26;4.10;;;0.80;;
62353;SDS011;48391;49.184;2.418;2023-04-01T09:34:43;3.40;;;0.55;;
62353;SDS011;48391;49.184;2.418;2023-04-01T10:05:33;1.80;;;0.20;;
62353;SDS011;48391;49.184;2.418;2023-04-01T10:10:58;2.50;;;0.70;;
62353;SDS011;48391;49.184;2.418;2023-04-01T10:37:30;2.25;;;0.82;;
62353;SDS011;48391;49.184;2.418;2023-04-01T10:55:53;4.13;;;0.80;;
62353;SDS011;48391;49.184;2.418;2023-04-01T11:25:11;1.30;;;0.47;;
62353;SDS011;48391;49.184;2.418;2023-04-01T11:30:41;2.72;;;0.70;;
62353;SDS011;48391;49.184;2.418;2023-04-01T11:33:25;1.40;;;0.55;;
62353;SDS011;48391;49.184;2.418;2023-04-01T11:36:08;1.85;;;0.88;;
62353;SDS011;48391;49.184;2.418;2023-04-01T11:43:40;1.85;;;0.68;;
62353;SDS011;48391;49.184;2.418;2023-04-01T11:46:17;1.60;;;0.73;;
62353;SDS011;48391;49.184;2.418;2023-04-01T11:56:48;2.38;;;0.40;;
62353;SDS011;48391;49.184;2.418;2023-04-01T11:59:38;2.70;;;0.63;;
62353;SDS011;48391;49.184;2.418;2023-04-01T12:04:36;3.80;;;0.65;;
62353;SDS011;48391;49.184;2.418;2023-04-01T12:12:22;2.88;;;0.68;;
62353;SDS011;48391;49.184;2.418;2023-04-01T12:17:26;3.78;;;0.70;;
62353;SDS011;48391;49.184;2.418;2023-04-01T12:19:56;2.35;;;0.55;;
62353;SDS011;48391;49.184;2.418;2023-04-01T12:28:08;2.70;;;0.40;;
62353;SDS011;48391;49.184;2.418;2023-04-01T12:33:28;1.70;;;0.40;;
62353;SDS011;48391;49.184;2.418;2023-04-01T12:38:36;2.38;;;0.85;;
62353;SDS011;48391;49.184;2.418;2023-04-01T12:41:15;3.42;;;0.65;;
62353;SDS011;48391;49.184;2.418;2023-04-01T13:10:37;1.95;;;0.50;;
62353;SDS011;48391;49.184;2.418;2023-04-01T13:15:37;2.70;;;0.60;;
62353;SDS011;48391;49.184;2.418;2023-04-01T13:20:58;1.00;;;0.30;;
62353;SDS011;48391;49.184;2.418;2023-04-01T13:26:01;1.70;;;0.55;;
62353;SDS011;48391;49.184;2.418;2023-04-01T13:28:30;4.18;;;0.60;;
62353;SDS011;48391;49.184;2.418;2023-04-01T13:36:10;1.67;;;0.30;;
62353;SDS011;48391;49.184;2.418;2023-04-01T13:43:51;7.68;;;1.65;;
62353;SDS011;48391;49.184;2.418;2023-04-01T14:07:45;3.67;;;0.60;;
62353;SDS011;48391;49.184;2.418;2023-04-01T14:20:47;2.85;;;0.75;;
62353;SDS011;48391;49.184;2.418;2023-04-01T14:31:18;3.95;;;0.40;;
62353;SDS011;48391;49.184;2.418;2023-04-01T14:41:42;1.50;;;0.00;;
62353;SDS011;48391;49.184;2.418;2023-04-01T14:49:34;2.78;;;0.10;;
62353;SDS011;48391;49.184;2.418;2023-04-01T14:52:44;0.35;;;0.32;;
62353;SDS011;48391;49.184;2.418;2023-04-01T14:54:50;0.50;;;0.35;;
62353;SDS011;48391;49.184;2.418;2023-04-01T15:00:13;0.40;;;0.10;;
62353;SDS011;48391;49.184;2.418;2023-04-01T15:08:08;0.10;;;0.00;;
62353;SDS011;48391;49.184;2.418;2023-04-01T15:10:46;0.10;;;0.00;;
62353;SDS011;48391;49.184;2.418;2023-04-01T15:13:18;0.20;;;0.00;;
62353;SDS011;48391;49.184;2.418;2023-04-01T15:21:18;0.20;;;0.10;;
62353;SDS011;48391;49.184;2.418;2023-04-01T15:29:04;1.45;;;0.50;;
62353;SDS011;48391;49.184;2.418;2023-04-01T15:31:47;2.08;;;0.22;;
62353;SDS011;48391;49.184;2.418;2023-04-01T15:37:02;1.17;;;0.47;;
62353;SDS011;48391;49.184;2.418;2023-04-01T15:39:41;2.38;;;0.32;;
62353;SDS011;48391;49.184;2.418;2023-04-01T15:49:47;12.70;;;1.92;;
62353;SDS011;48391;49.184;2.418;2023-04-01T16:00:11;0.93;;;0.20;;
62353;SDS011;48391;49.184;2.418;2023-04-01T16:05:10;1.50;;;0.50;;
62353;SDS011;48391;49.184;2.418;2023-04-01T16:12:53;2.60;;;0.65;;
62353;SDS011;48391;49.184;2.418;2023-04-01T16:25:52;2.80;;;0.65;;
62353;SDS011;48391;49.184;2.418;2023-04-01T16:31:06;1.23;;;0.28;;
62353;SDS011;48391;49.184;2.418;2023-04-01T16:33:49;1.38;;;0.32;;
62353;SDS011;48391;49.184;2.418;2023-04-01T16:41:42;0.90;;;0.47;;
62353;SDS011;48391;49.184;2.418;2023-04-01T16:49:42;1.05;;;0.20;;
62353;SDS011;48391;49.184;2.418;2023-04-01T16:57:25;0.75;;;0.10;;
62353;SDS011;48391;49.184;2.418;2023-04-01T17:02:21;1.25;;;0.20;;
62353;SDS011;48391;49.184;2.418;2023-04-01T17:14:40;0.63;;;0.28;;
62353;SDS011;48391;49.184;2.418;2023-04-01T17:17:14;0.60;;;0.20;;
62353;SDS011;48391;49.184;2.418;2023-04-01T17:19:45;1.35;;;0.13;;
62353;SDS011;48391;49.184;2.418;2023-04-01T17:22:16;1.65;;;0.28;;
62353;SDS011;48391;49.184;2.418;2023-04-01T17:27:40;1.13;;;0.63;;
62353;SDS011;48391;49.184;2.418;2023-04-01T17:30:13;0.47;;;0.15;;
62353;SDS011;48391;49.184;2.418;2023-04-01T17:33:16;0.10;;;0.00;;
62353;SDS011;48391;49.184;2.418;2023-04-01T17:35:42;0.88;;;0.30;;
62353;SDS011;48391;49.184;2.418;2023-04-01T17:43:37;0.52;;;0.22;;
62353;SDS011;48391;49.184;2.418;2023-04-01T17:48:55;0.80;;;0.25;;
62353;SDS011;48391;49.184;2.418;2023-04-01T17:51:43;1.48;;;0.40;;
62353;SDS011;48391;49.184;2.418;2023-04-01T17:59:36;3.53;;;0.60;;
62353;SDS011;48391;49.184;2.418;2023-04-01T18:07:24;1.05;;;0.45;;
62353;SDS011;48391;49.184;2.418;2023-04-01T18:25:46;0.70;;;0.30;;
62353;SDS011;48391;49.184;2.418;2023-04-01T18:30:39;1.33;;;0.80;;
62353;SDS011;48391;49.184;2.418;2023-04-01T18:33:15;1.48;;;0.80;;
62353;SDS011;48391;49.184;2.418;2023-04-01T18:38:16;0.60;;;0.57;;
62353;SDS011;48391;49.184;2.418;2023-04-01T18:40:51;1.52;;;0.88;;
62353;SDS011;48391;49.184;2.418;2023-04-01T18:43:38;0.98;;;0.63;;
62353;SDS011;48391;49.184;2.418;2023-04-01T18:46:16;1.92;;;0.77;;
62353;SDS011;48391;49.184;2.418;2023-04-01T18:56:41;2.42;;;1.20;;
62353;SDS011;48391;49.184;2.418;2023-04-01T18:59:16;1.67;;;1.58;;
62353;SDS011;48391;49.184;2.418;2023-04-01T19:06:52;2.05;;;1.83;;
62353;SDS011;48391;49.184;2.418;2023-04-01T19:09:22;5.13;;;2.00;;
62353;SDS011;48391;49.184;2.418;2023-04-01T19:14:19;2.50;;;1.60;;
62353;SDS011;48391;49.184;2.418;2023-04-01T19:21:54;6.15;;;1.55;;
62353;SDS011;48391;49.184;2.418;2023-04-01T19:24:31;4.70;;;2.53;;
62353;SDS011;48391;49.184;2.418;2023-04-01T19:27:06;3.03;;;2.22;;
62353;SDS011;48391;49.184;2.418;2023-04-01T19:29:57;6.00;;;4.10;;
62353;SDS011;48391;49.184;2.418;2023-04-01T19:34:57;4.03;;;2.92;;
62353;SDS011;48391;49.184;2.418;2023-04-01T19:39:58;2.45;;;1.50;;
62353;SDS011;48391;49.184;2.418;2023-04-01T19:42:47;2.10;;;1.20;;
62353;SDS011;48391;49.184;2.418;2023-04-01T19:50:25;4.40;;;2.72;;
62353;SDS011;48391;49.184;2.418;2023-04-01T19:52:55;2.05;;;1.58;;
62353;SDS011;48391;49.184;2.418;2023-04-01T20:08:05;2.70;;;1.90;;
62353;SDS011;48391;49.184;2.418;2023-04-01T20:10:42;2.75;;;2.00;;
62353;SDS011;48391;49.184;2.418;2023-04-01T20:13:21;4.80;;;2.08;;
62353;SDS011;48391;49.184;2.418;2023-04-01T20:15:58;3.63;;;1.98;;
62353;SDS011;48391;49.184;2.418;2023-04-01T20:18:31;4.38;;;1.70;;
62353;SDS011;48391;49.184;2.418;2023-04-01T20:21:03;1.92;;;1.02;;
62353;SDS011;48391;49.184;2.418;2023-04-01T20:26:19;5.10;;;2.05;;
62353;SDS011;48391;49.184;2.418;2023-04-01T20:31:41;4.10;;;1.83;;
62353;SDS011;48391;49.184;2.418;2023-04-01T20:34:12;2.35;;;1.85;;
62353;SDS011;48391;49.184;2.418;2023-04-01T20:36:54;5.22;;;2.03;;
62353;SDS011;48391;49.184;2.418;2023-04-01T20:50:02;4.85;;;2.30;;
62353;SDS011;48391;49.184;2.418;2023-04-01T20:52:34;4.25;;;2.20;;
62353;SDS011;48391;49.184;2.418;2023-04-01T20:55:18;3.65;;;1.88;;
62353;SDS011;48391;49.184;2.418;2023-04-01T21:03:43;4.82;;;3.10;;
62353;SDS011;48391;49.184;2.418;2023-04-01T21:10:57;5.25;;;3.78;;
62353;SDS011;48391;49.184;2.418;2023-04-01T21:16:30;6.60;;;2.90;;
62353;SDS011;48391;49.184;2.418;2023-04-01T21:21:50;3.03;;;2.05;;
62353;SDS011;48391;49.184;2.418;2023-04-01T21:24:35;7.82;;;3.05;;
62353;SDS011;48391;49.184;2.418;2023-04-01T21:53:56;3.67;;;2.85;;
62353;SDS011;48391;49.184;2.418;2023-04-01T22:06:37;4.55;;;3.28;;
62353;SDS011;48391;49.184;2.418;2023-04-01T22:09:11;7.63;;;5.05;;
62353;SDS011;48391;49.184;2.418;2023-04-01T22:11:44;5.20;;;3.17;;
62353;SDS011;48391;49.184;2.418;2023-04-01T22:17:04;9.77;;;3.70;;
62353;SDS011;48391;49.184;2.418;2023-04-01T22:27:52;6.13;;;4.53;;
62353;SDS011;48391;49.184;2.418;2023-04-01T22:30:24;6.18;;;3.90;;
62353;SDS011;48391;49.184;2.418;2023-04-01T22:32:58;5.25;;;2.95;;
62353;SDS011;48391;49.184;2.418;2023-04-01T22:43:13;5.57;;;3.47;;
62353;SDS011;48391;49.184;2.418;2023-04-01T22:48:37;3.78;;;3.17;;
62353;SDS011;48391;49.184;2.418;2023-04-01T22:56:24;7.50;;;4.07;;
62353;SDS011;48391;49.184;2.418;2023-04-01T23:01:35;3.20;;;2.83;;
62353;SDS011;48391;49.184;2.418;2023-04-01T23:04:04;5.40;;;2.90;;
62353;SDS011;48391;49.184;2.418;2023-04-01T23:06:35;3.65;;;2.30;;
62353;SDS011;48391;49.184;2.418;2023-04-01T23:11:32;5.25;;;2.88;;
62353;SDS011;48391;49.184;2.418;2023-04-01T23:16:43;3.03;;;1.80;;
62353;SDS011;48391;49.184;2.418;2023-04-01T23:19:19;3.63;;;2.75;;
62353;SDS011;48391;49.184;2.418;2023-04-01T23:21:50;2.75;;;2.50;;
62353;SDS011;48391;49.184;2.418;2023-04-01T23:24:21;4.80;;;2.95;;
62353;SDS011;48391;49.184;2.418;2023-04-01T23:27:11;3.33;;;2.65;;
62353;SDS011;48391;49.184;2.418;2023-04-01T23:29:39;4.38;;;3.25;;
62353;SDS011;48391;49.184;2.418;2023-04-01T23:32:17;3.83;;;3.45;;
62353;SDS011;48391;49.184;2.418;2023-04-01T23:34:51;3.72;;;3.13;;
62353;SDS011;48391;49.184;2.418;2023-04-01T23:37:18;3.13;;;2.75;;
62353;SDS011;48391;49.184;2.418;2023-04-01T23:39:48;4.10;;;3.15;;
62353;SDS011;48391;49.184;2.418;2023-04-01T23:42:37;3.15;;;2.42;;
62353;SDS011;48391;49.184;2.418;2023-04-01T23:45:05;3.25;;;2.22;;
62353;SDS011;48391;49.184;2.418;2023-04-01T23:47:35;1.90;;;1.80;;
62353;SDS011;48391;49.184;2.418;2023-04-01T23:50:03;2.42;;;2.20;;
62353;SDS011;48391;49.184;2.418;2023-04-01T23:53:16;4.35;;;2.25;;
62353;SDS011;48391;49.184;2.418;2023-04-01T23:55:28;3.28;;;2.20;;
62353;SDS011;48391;49.184;2.418;2023-04-01T23:58:41;4.55;;;2.78;;
